This is the latest recevied weather packets stored in our database for station/object IZ5MMH-1. If no packets are shown the sender has not sent any weather packets the latest 10 day(s).
| Time | Temp. | Humidity | Pressure | Rain* | Wind** | Luminosity | Snow |
|---|---|---|---|---|---|---|---|
| 1787627683 | 20.56° C | 76% | 1012 hPa | - | - | - | - |
| 1787627082 | 20.56° C | 73% | 1012.2 hPa | - | - | - | - |
| 1787626482 | 20.56° C | 76% | 1012.4 hPa | - | - | - | - |
| 1787625883 | 21.11° C | 76% | 1012.9 hPa | - | - | - | - |
| 1787625282 | 21.11° C | 73% | 1013 hPa | - | - | - | - |
| 1787624682 | 21.11° C | 76% | 1013.3 hPa | - | - | - | - |
| 1787624082 | 21.11° C | 75% | 1013.4 hPa | - | - | - | - |
| 1787623482 | 21.11° C | 77% | 1013.7 hPa | - | - | - | - |
| 1787622882 | 21.11° C | 78% | 1014.2 hPa | - | - | - | - |
| 1787622283 | 21.11° C | 75% | 1014.2 hPa | - | - | - | - |
| 1787621682 | 21.11° C | 76% | 1014.6 hPa | - | - | - | - |
| 1787621083 | 21.11° C | 78% | 1014.2 hPa | - | - | - | - |
| 1787620483 | 21.11° C | 75% | 1013.2 hPa | - | - | - | - |
| 1787619882 | 21.11° C | 76% | 1011.8 hPa | - | - | - | - |
| 1787619282 | 21.67° C | 76% | 1013.1 hPa | - | - | - | - |
| 1787618303 | 21.67° C | 78% | 1017.6 hPa | - | - | - | - |
| 1787617703 | 21.67° C | 74% | 1015 hPa | - | - | - | - |
| 1787617103 | 22.22° C | 72% | 1015.6 hPa | - | - | - | - |
| 1787616503 | 23.89° C | 72% | 1016.6 hPa | - | - | - | - |
| 1787615903 | 23.89° C | 68% | 1014.7 hPa | - | - | - | - |
| 1787615303 | 23.89° C | 66% | 1013.4 hPa | - | - | - | - |
| 1787614703 | 23.89° C | 64% | 1013.8 hPa | - | - | - | - |
| 1787614103 | 23.89° C | 67% | 1014.8 hPa | - | - | - | - |
| 1787613503 | 24.44° C | 65% | 1013.9 hPa | - | - | - | - |
| 1787612903 | 24.44° C | 62% | 1013.3 hPa | - | - | - | - |
* Rain since midnight (hover to see other rain measurements)
** Current wind speed in m/s (hover to see current wind gust speed)